This is the latest recevied weather packets stored in our database for station/object W1RCP. If no packets are shown the sender has not sent any weather packets the latest 1 day(s).
| Time | Temp. | Humidity | Pressure | Rain* | Wind** | Luminosity | Snow |
|---|---|---|---|---|---|---|---|
| 1778015626 | 30° C | 34% | 1024.6 hPa | 0 mm | - | 502 W/m² | - |
| 1778013506 | 28.89° C | 36% | 1025 hPa | 0 mm | - | 603 W/m² | - |
| 1778012595 | 29.44° C | 36% | 1025.3 hPa | 0 mm | - | 604 W/m² | - |
| 1778011384 | 29.44° C | 36% | 1025.6 hPa | 0 mm | - | 694 W/m² | - |
| 1778011079 | 28.89° C | 36% | 1025.7 hPa | 0 mm | - | 717 W/m² | - |
| 1778010474 | 28.89° C | 38% | 1026 hPa | 0 mm | - | 672 W/m² | - |
| 1778009866 | 28.89° C | 39% | 1026 hPa | 0 mm | - | 747 W/m² | - |
| 1778009564 | 29.44° C | 35% | 1026.1 hPa | 0 mm | - | 768 W/m² | - |
| 1778007145 | 28.89° C | 37% | 1026.5 hPa | 0 mm | - | 810 W/m² | - |
| 1778006235 | 27.78° C | 39% | 1026.6 hPa | 0 mm | - | 840 W/m² | - |
| 1778005933 | 27.78° C | 39% | 1026.5 hPa | 0 mm | - | 846 W/m² | - |
| 1778005326 | 27.78° C | 39% | 1026.7 hPa | 0 mm | - | 713 W/m² | - |
| 1778003809 | 27.78° C | 38% | 1026.7 hPa | 0 mm | - | 877 W/m² | - |
| 1778001381 | 27.22° C | 41% | 1027.3 hPa | 0 mm | - | 852 W/m² | - |
| 1778001078 | 27.22° C | 42% | 1027.2 hPa | 0 mm | - | 822 W/m² | - |
| 1777998047 | 26.67° C | 41% | 1027.7 hPa | 0 mm | - | 906 W/m² | - |
| 1777997139 | 25.56° C | 47% | 1027.7 hPa | 0 mm | - | 898 W/m² | - |
| 1777996836 | 25.56° C | 50% | 1027.7 hPa | 0 mm | - | 867 W/m² | - |
| 1777996532 | 25.56° C | 51% | 1027.7 hPa | 0 mm | - | 921 W/m² | - |
| 1777995925 | 25° C | 52% | 1028 hPa | 0 mm | - | 716 W/m² | - |
| 1777995319 | 25.56° C | 52% | 1028 hPa | 0 mm | - | 784 W/m² | - |
| 1777994408 | 23.89° C | 57% | 1028.2 hPa | 0 mm | - | 752 W/m² | - |
| 1777993497 | 23.89° C | 57% | 1028.4 hPa | 0 mm | - | 694 W/m² | - |
* Rain latest hour (hover to see other rain measurements)
** Current wind speed in m/s (hover to see current wind gust speed)